Las Palmas, Spain
Current Conditions -  °F | °C
As of 5:30 AM on Friday 28 Nov 2014 (Local Time) from GCLP Reporting Station
Few Clouds Few Clouds  
Wind Chill: 66°   Ceiling: Unl
Heat Index: 66°   Visibility: 6mi
Dew Point: 59°   Wind: 3mph
Humidity: 78%   Direction: 310°NW
Pressure: 29.65"   Gusts: NA
Location:  28.12°N, 15.43°W
Report Text: GCLP 280530Z 31003KT 9999 FEW020 19/15 Q1004 NOSIG
Loading
Personal Weather Stations






























Interactive Weather Map New forecast layout! Learn more

10-Day Weather Forecast

Advertisements
Track Severe Weather on mobile